createdAt,value
2018-08-24T00:00:19.503Z,21.30
2018-08-24T00:02:48.195Z,21.30
2018-08-24T00:05:16.971Z,21.40
2018-08-24T00:07:45.675Z,21.40
2018-08-24T00:10:16.179Z,21.40
2018-08-24T00:12:44.771Z,21.40
2018-08-24T00:15:13.476Z,21.50
2018-08-24T00:17:46.608Z,21.40
2018-08-24T00:20:15.204Z,21.30
2018-08-24T00:22:45.184Z,21.20
2018-08-24T00:25:13.934Z,21.20
2018-08-24T00:27:43.285Z,21.30
2018-08-24T00:30:12.225Z,21.30
2018-08-24T00:32:40.963Z,21.40
2018-08-24T00:35:09.674Z,19.70
2018-08-24T00:37:39.713Z,21.30
2018-08-24T00:40:08.365Z,21.30
2018-08-24T00:42:37.204Z,19.70
2018-08-24T00:45:06.145Z,21.20
2018-08-24T00:47:35.100Z,21.10
2018-08-24T00:50:03.835Z,21.00
2018-08-24T00:52:32.450Z,21.00
2018-08-24T00:55:01.197Z,20.90
2018-08-24T00:57:32.744Z,20.90
2018-08-24T01:00:01.394Z,20.90
2018-08-24T01:02:29.995Z,20.90
2018-08-24T01:04:58.863Z,20.90
2018-08-24T01:07:27.433Z,21.00
2018-08-24T01:09:56.263Z,21.00
2018-08-24T01:12:24.937Z,20.90
2018-08-24T01:14:53.645Z,20.80
2018-08-24T01:17:27.463Z,20.80
2018-08-24T01:19:56.099Z,20.60
2018-08-24T01:22:24.780Z,20.80
2018-08-24T01:24:54.943Z,20.90
2018-08-24T01:27:23.622Z,20.90
2018-08-24T01:29:53.540Z,20.40
2018-08-24T01:32:22.307Z,21.00
2018-08-24T01:34:50.979Z,20.90
2018-08-24T01:37:19.657Z,20.80
2018-08-24T01:39:48.399Z,20.80
2018-08-24T01:42:17.052Z,20.70
2018-08-24T01:44:48.228Z,20.40
2018-08-24T01:47:17.059Z,20.60
2018-08-24T01:49:45.704Z,20.60
2018-08-24T01:52:14.417Z,20.70
2018-08-24T01:54:42.978Z,20.80
2018-08-24T01:57:11.658Z,20.80
2018-08-24T01:59:40.456Z,20.80
2018-08-24T02:02:09.147Z,20.60
2018-08-24T02:04:37.939Z,20.40
2018-08-24T02:07:06.610Z,20.40
2018-08-24T02:09:35.307Z,19.80
2018-08-24T02:12:04.165Z,20.40
2018-08-24T02:14:40.531Z,20.50
2018-08-24T02:17:14.501Z,22.30
2018-08-24T02:19:48.412Z,20.60
2018-08-24T02:22:18.512Z,20.60
2018-08-24T02:24:47.097Z,20.60
2018-08-24T02:27:15.869Z,20.60
2018-08-24T02:29:44.543Z,20.70
2018-08-24T02:32:13.237Z,20.70
2018-08-24T02:34:44.146Z,22.30
2018-08-24T02:37:12.801Z,20.70
2018-08-24T02:39:41.424Z,20.70
2018-08-24T02:42:10.886Z,20.70
2018-08-24T02:44:39.558Z,20.80
2018-08-24T02:47:08.160Z,20.80
2018-08-24T02:49:36.926Z,20.70
2018-08-24T02:52:05.730Z,20.80
2018-08-24T02:54:34.367Z,20.80
2018-08-24T02:57:04.147Z,20.90
2018-08-24T02:59:32.826Z,20.80
2018-08-24T03:02:02.882Z,20.70
2018-08-24T03:04:31.785Z,20.60
2018-08-24T03:07:00.620Z,20.60
2018-08-24T03:09:29.347Z,20.60
2018-08-24T03:11:58.349Z,20.70
2018-08-24T03:14:27.979Z,20.70
2018-08-24T03:17:01.842Z,20.60
2018-08-24T03:19:32.602Z,20.60
2018-08-24T03:22:01.231Z,20.60
2018-08-24T03:24:29.988Z,20.60
2018-08-24T03:26:58.746Z,20.60
2018-08-24T03:29:28.992Z,20.60
2018-08-24T03:31:57.739Z,20.50
2018-08-24T03:34:28.310Z,20.50
2018-08-24T03:36:58.802Z,20.00
2018-08-24T03:39:27.548Z,20.60
2018-08-24T03:41:56.279Z,20.60
2018-08-24T03:44:25.182Z,20.50
2018-08-24T03:46:54.662Z,20.60
2018-08-24T03:49:23.445Z,20.60
2018-08-24T03:51:52.095Z,20.60
2018-08-24T03:54:22.131Z,20.60
2018-08-24T03:58:23.738Z,20.60
2018-08-24T04:00:56.539Z,20.60
2018-08-24T04:03:25.286Z,20.70
2018-08-24T04:05:53.984Z,20.70
2018-08-24T04:08:22.967Z,20.80
2018-08-24T04:10:51.543Z,20.80
2018-08-24T04:13:20.279Z,20.80
2018-08-24T04:15:48.977Z,20.80
2018-08-24T04:18:17.705Z,20.80
2018-08-24T04:20:46.391Z,20.80
2018-08-24T04:23:15.052Z,20.40
2018-08-24T04:25:43.751Z,20.80
2018-08-24T04:28:12.450Z,20.90
2018-08-24T04:30:41.192Z,21.00
2018-08-24T04:33:10.011Z,21.00
2018-08-24T04:35:39.043Z,21.00
2018-08-24T04:38:07.929Z,21.00
2018-08-24T04:40:36.786Z,21.20
2018-08-24T04:43:05.546Z,21.20
2018-08-24T04:45:34.284Z,21.30
2018-08-24T04:48:02.973Z,21.40
2018-08-24T04:50:31.917Z,21.40
2018-08-24T04:53:00.539Z,21.40
2018-08-24T04:55:29.128Z,21.40
2018-08-24T04:57:57.864Z,21.40
2018-08-24T05:00:28.070Z,21.40
2018-08-24T05:03:04.891Z,21.30
2018-08-24T05:05:33.925Z,21.20
2018-08-24T05:08:02.684Z,21.10
2018-08-24T05:10:31.400Z,21.00
2018-08-24T05:13:00.101Z,21.00
2018-08-24T05:15:28.780Z,21.00
2018-08-24T05:17:57.428Z,21.00
2018-08-24T05:20:26.095Z,22.40
2018-08-24T05:22:54.726Z,21.10
2018-08-24T05:25:25.532Z,21.10
2018-08-24T05:27:54.187Z,21.10
2018-08-24T05:30:22.862Z,21.10
2018-08-24T05:32:51.476Z,21.00
2018-08-24T05:35:20.250Z,20.90
2018-08-24T05:37:48.943Z,20.90
2018-08-24T05:40:17.622Z,21.00
2018-08-24T05:42:46.229Z,21.00
2018-08-24T05:45:17.163Z,21.10
2018-08-24T05:47:45.863Z,21.00
2018-08-24T05:50:14.525Z,20.90
2018-08-24T05:52:43.402Z,20.90
2018-08-24T05:55:12.168Z,20.80
2018-08-24T05:57:40.986Z,20.80
2018-08-24T06:00:09.762Z,20.80
2018-08-24T06:02:38.538Z,20.80
2018-08-24T06:05:07.207Z,20.90
2018-08-24T06:07:35.935Z,20.80
2018-08-24T06:10:04.653Z,20.90
2018-08-24T06:12:33.505Z,20.90
2018-08-24T06:15:02.728Z,21.00
2018-08-24T06:17:36.467Z,21.00
2018-08-24T06:20:05.269Z,21.10
2018-08-24T06:22:36.116Z,21.10
2018-08-24T06:25:04.944Z,21.20
2018-08-24T06:27:33.774Z,21.30
2018-08-24T06:30:02.480Z,21.30
2018-08-24T06:32:31.232Z,21.30
2018-08-24T06:34:59.970Z,21.30
2018-08-24T06:37:28.636Z,21.20
2018-08-24T06:39:57.346Z,21.20
2018-08-24T06:42:26.100Z,21.20
2018-08-24T06:44:54.804Z,19.60
2018-08-24T06:47:27.835Z,21.40
2018-08-24T06:49:57.603Z,21.50
2018-08-24T06:52:30.913Z,21.60
2018-08-24T06:55:03.556Z,21.60
2018-08-24T06:57:32.361Z,21.60
2018-08-24T07:00:01.233Z,21.70
2018-08-24T07:02:30.054Z,21.60
2018-08-24T07:05:01.072Z,21.60
2018-08-24T07:07:29.790Z,21.60
2018-08-24T07:09:58.470Z,21.80
2018-08-24T07:12:28.610Z,21.90
2018-08-24T07:14:57.594Z,21.90
2018-08-24T07:24:15.596Z,21.90
2018-08-24T07:26:44.439Z,22.20
2018-08-24T07:29:13.290Z,22.40
2018-08-24T07:31:44.278Z,22.50
2018-08-24T07:34:13.040Z,22.50
2018-08-24T07:36:41.915Z,22.60
2018-08-24T07:39:12.734Z,22.90
2018-08-24T07:41:41.492Z,23.10
2018-08-24T07:44:10.648Z,23.10
2018-08-24T07:46:39.658Z,23.10
2018-08-24T07:49:11.124Z,23.10
2018-08-24T07:51:40.086Z,23.30
2018-08-24T07:54:08.775Z,23.30
2018-08-24T07:56:37.627Z,23.40
2018-08-24T07:59:08.262Z,23.20
2018-08-24T08:01:37.270Z,23.00
2018-08-24T08:04:06.057Z,23.20
2018-08-24T08:06:34.926Z,23.10
2018-08-24T08:09:04.934Z,23.20
2018-08-24T08:11:40.264Z,23.10
2018-08-24T08:14:09.320Z,23.00
2018-08-24T08:16:38.038Z,23.10
2018-08-24T08:19:06.932Z,23.20
2018-08-24T08:21:35.608Z,23.30
2018-08-24T08:24:05.955Z,23.40
2018-08-24T08:26:34.728Z,23.60
2018-08-24T08:29:03.447Z,23.60
2018-08-24T08:31:32.157Z,23.70
2018-08-24T08:34:01.199Z,23.60
2018-08-24T08:36:29.783Z,23.70
2018-08-24T08:38:58.730Z,23.60
2018-08-24T08:41:27.447Z,23.60
2018-08-24T08:43:56.230Z,23.60
2018-08-24T08:46:24.944Z,23.70
2018-08-24T08:48:54.607Z,23.70
2018-08-24T08:51:23.314Z,23.70
2018-08-24T08:53:53.104Z,23.70
2018-08-24T08:56:21.810Z,23.70
2018-08-24T08:58:50.464Z,23.80
2018-08-24T09:01:19.492Z,23.90
2018-08-24T09:03:48.123Z,23.90
2018-08-24T09:06:16.780Z,23.90
2018-08-24T09:08:45.544Z,23.90
2018-08-24T09:11:14.308Z,24.00
2018-08-24T09:13:43.034Z,24.00
2018-08-24T09:16:12.278Z,24.10
2018-08-24T09:18:47.359Z,24.00
2018-08-24T09:21:21.100Z,24.00
2018-08-24T09:23:56.616Z,24.00
2018-08-24T09:26:30.522Z,24.00
2018-08-24T09:29:03.664Z,24.00
2018-08-24T09:31:34.425Z,24.10
2018-08-24T09:34:03.115Z,24.20
2018-08-24T09:36:31.933Z,24.60
2018-08-24T09:39:00.701Z,24.90
2018-08-24T09:41:31.634Z,25.30
2018-08-24T09:44:01.783Z,25.50
2018-08-24T09:46:35.658Z,25.60
2018-08-24T09:49:38.864Z,25.50
2018-08-24T09:52:13.050Z,25.50
2018-08-24T09:54:41.864Z,27.20
2018-08-24T09:57:10.671Z,25.30
2018-08-24T09:59:39.644Z,25.30
2018-08-24T10:04:15.537Z,25.30
2018-08-24T10:06:49.659Z,25.30
2018-08-24T10:09:18.292Z,25.30
2018-08-24T10:11:48.877Z,25.60
2018-08-24T10:14:17.582Z,25.80
2018-08-24T10:16:46.777Z,26.00
2018-08-24T10:19:19.448Z,26.00
2018-08-24T10:21:53.310Z,26.00
2018-08-24T10:24:22.262Z,25.80
2018-08-24T10:26:53.065Z,26.30
2018-08-24T10:29:21.820Z,26.80
2018-08-24T10:31:50.467Z,25.10
2018-08-24T10:34:19.223Z,26.30
2018-08-24T10:36:47.924Z,26.00
2018-08-24T10:39:16.707Z,26.10
2018-08-24T10:41:45.349Z,26.80
2018-08-24T10:44:14.058Z,27.80
2018-08-24T10:46:42.771Z,27.70
2018-08-24T10:49:11.434Z,27.20
2018-08-24T10:51:40.043Z,26.50
2018-08-24T10:54:08.726Z,26.10
2018-08-24T10:56:37.694Z,26.10
2018-08-24T10:59:06.462Z,26.10
2018-08-24T11:01:35.188Z,26.20
2018-08-24T11:04:03.930Z,26.40
2018-08-24T11:06:32.576Z,26.90
2018-08-24T11:09:01.236Z,27.90
2018-08-24T11:11:29.967Z,28.10
2018-08-24T11:13:58.867Z,27.80
2018-08-24T11:16:27.629Z,27.50
2018-08-24T11:18:56.326Z,27.50
2018-08-24T11:21:25.026Z,28.40
2018-08-24T11:23:53.732Z,26.50
2018-08-24T11:26:22.324Z,28.30
2018-08-24T11:28:51.142Z,27.70
2018-08-24T11:31:19.932Z,27.70
2018-08-24T11:33:48.711Z,27.80
2018-08-24T11:36:17.580Z,28.30
2018-08-24T11:38:46.387Z,28.00
2018-08-24T11:41:15.023Z,27.60
2018-08-24T11:43:43.739Z,27.10
2018-08-24T11:46:12.422Z,26.50
2018-08-24T11:48:41.099Z,26.70
2018-08-24T11:51:09.775Z,26.60
2018-08-24T11:53:38.408Z,26.30
2018-08-24T11:56:08.797Z,26.70
2018-08-24T11:58:37.577Z,26.80
2018-08-24T12:01:06.355Z,26.90
2018-08-24T12:03:35.151Z,26.90
2018-08-24T12:06:03.988Z,27.00
2018-08-24T12:08:32.829Z,26.90
2018-08-24T12:11:01.591Z,26.80
2018-08-24T12:13:30.866Z,26.60
2018-08-24T12:15:59.484Z,26.50
2018-08-24T12:18:28.332Z,26.50
2018-08-24T12:20:56.952Z,26.30
2018-08-24T12:23:25.853Z,26.30
2018-08-24T12:25:54.820Z,26.20
2018-08-24T12:28:23.777Z,25.90
2018-08-24T12:30:52.811Z,26.20
2018-08-24T12:33:21.547Z,26.30
2018-08-24T12:35:52.640Z,26.30
2018-08-24T12:38:21.552Z,26.30
2018-08-24T12:40:50.252Z,26.30
2018-08-24T12:43:19.042Z,26.50
2018-08-24T12:45:47.971Z,26.70
2018-08-24T12:48:16.762Z,26.80
2018-08-24T12:50:45.505Z,26.90
2018-08-24T12:53:14.225Z,26.90
2018-08-24T12:55:43.047Z,26.90
2018-08-24T12:58:14.605Z,27.00
2018-08-24T13:00:43.630Z,27.30
2018-08-24T13:03:17.058Z,27.60
2018-08-24T13:05:45.794Z,27.80
2018-08-24T13:08:14.555Z,27.60
2018-08-24T13:10:43.307Z,27.40
2018-08-24T13:13:12.279Z,26.40
2018-08-24T13:15:41.140Z,27.10
2018-08-24T13:18:09.962Z,27.00
2018-08-24T13:20:42.583Z,26.70
2018-08-24T13:23:15.369Z,26.50
2018-08-24T13:25:44.143Z,26.40
2018-08-24T13:28:12.841Z,26.40
2018-08-24T13:30:41.608Z,26.40
2018-08-24T13:33:10.216Z,26.30
2018-08-24T13:35:39.005Z,26.40
2018-08-24T13:38:10.662Z,26.30
2018-08-24T13:40:39.407Z,27.70
2018-08-24T13:43:09.016Z,26.20
2018-08-24T13:45:37.973Z,26.20
2018-08-24T13:48:07.114Z,26.30
2018-08-24T13:50:35.888Z,26.30
2018-08-24T13:53:04.734Z,26.20
2018-08-24T13:55:33.706Z,26.70
2018-08-24T13:58:02.726Z,27.60
2018-08-24T14:00:31.477Z,28.20
2018-08-24T14:03:00.267Z,28.10
2018-08-24T14:05:29.157Z,27.70
2018-08-24T14:07:57.827Z,27.60
2018-08-24T14:10:26.536Z,27.50
2018-08-24T14:12:55.336Z,27.10
2018-08-24T14:15:24.392Z,26.90
2018-08-24T14:17:54.429Z,26.70
2018-08-24T14:20:24.465Z,26.60
2018-08-24T14:22:54.754Z,26.50
2018-08-24T14:25:24.288Z,26.40
2018-08-24T14:27:53.262Z,26.30
2018-08-24T14:30:22.015Z,26.20
2018-08-24T14:32:50.882Z,26.20
2018-08-24T14:35:19.760Z,26.10
2018-08-24T14:37:48.819Z,26.00
2018-08-24T14:40:17.443Z,25.80
2018-08-24T14:42:46.262Z,25.70
2018-08-24T14:45:14.938Z,25.10
2018-08-24T14:47:43.470Z,24.30
2018-08-24T14:50:13.612Z,23.90
2018-08-24T14:52:42.347Z,23.70
2018-08-24T14:55:11.045Z,23.60
2018-08-24T14:57:39.713Z,23.60
2018-08-24T15:00:08.402Z,23.60
2018-08-24T15:02:37.212Z,23.60
2018-08-24T15:05:08.314Z,23.60
2018-08-24T15:07:37.019Z,23.50
2018-08-24T15:10:06.030Z,23.40
2018-08-24T15:12:36.199Z,23.20
2018-08-24T15:15:07.153Z,22.80
2018-08-24T15:17:35.957Z,22.60
2018-08-24T15:20:05.104Z,22.50
2018-08-24T15:22:34.252Z,22.60
2018-08-24T15:25:03.170Z,22.70
2018-08-24T15:27:32.182Z,22.80
2018-08-24T15:30:01.040Z,23.00
2018-08-24T15:32:29.749Z,23.10
2018-08-24T15:34:58.462Z,23.30
2018-08-24T15:37:26.986Z,23.30
2018-08-24T15:39:55.780Z,23.30
2018-08-24T15:42:24.574Z,23.30
2018-08-24T15:44:53.423Z,23.40
2018-08-24T15:47:22.296Z,23.40
2018-08-24T15:49:51.395Z,23.50
2018-08-24T15:52:20.040Z,23.50
2018-08-24T15:54:48.806Z,23.60
2018-08-24T15:57:17.438Z,23.70
2018-08-24T15:59:46.132Z,23.70
2018-08-24T16:02:14.930Z,23.70
2018-08-24T16:04:43.737Z,23.60
2018-08-24T16:07:12.413Z,23.40
2018-08-24T16:09:41.146Z,23.40
2018-08-24T16:12:09.884Z,23.50
2018-08-24T16:14:38.554Z,23.40
2018-08-24T16:17:07.398Z,23.40
2018-08-24T16:19:36.310Z,23.50
2018-08-24T16:22:05.111Z,23.60
2018-08-24T16:24:35.684Z,23.50
2018-08-24T16:27:04.495Z,23.50
2018-08-24T16:29:34.880Z,23.40
2018-08-24T16:32:03.784Z,23.30
2018-08-24T16:34:35.388Z,23.30
2018-08-24T16:37:04.256Z,23.30
2018-08-24T16:39:32.935Z,23.40
2018-08-24T16:42:01.710Z,23.40
2018-08-24T16:44:31.406Z,25.10
2018-08-24T16:48:32.505Z,23.20
2018-08-24T16:51:01.518Z,23.20
2018-08-24T16:53:30.450Z,23.30
2018-08-24T16:55:59.147Z,23.20
2018-08-24T16:58:27.931Z,23.20
2018-08-24T17:00:56.648Z,23.20
2018-08-24T17:03:27.899Z,23.20
2018-08-24T17:05:56.903Z,23.20
2018-08-24T17:08:25.633Z,23.10
2018-08-24T17:10:54.631Z,23.10
2018-08-24T17:13:23.248Z,23.00
2018-08-24T17:15:52.019Z,23.10
2018-08-24T17:18:20.839Z,23.20
2018-08-24T17:20:49.612Z,23.20
2018-08-24T17:23:19.252Z,23.30
2018-08-24T17:25:48.078Z,23.30
2018-08-24T17:28:16.814Z,23.30
2018-08-24T17:30:49.445Z,23.30
2018-08-24T17:33:18.213Z,23.20
2018-08-24T17:35:47.270Z,23.10
2018-08-24T17:38:16.104Z,23.10
2018-08-24T17:40:45.343Z,23.10
2018-08-24T17:43:14.044Z,23.00
2018-08-24T17:45:42.708Z,22.90
2018-08-24T17:48:11.584Z,23.00
2018-08-24T17:50:40.168Z,23.00
2018-08-24T17:53:08.992Z,23.00
2018-08-24T17:55:39.206Z,23.00
2018-08-24T17:58:10.499Z,23.00
2018-08-24T18:00:39.734Z,23.00
2018-08-24T18:03:08.607Z,23.00
2018-08-24T18:05:37.313Z,23.00
2018-08-24T18:08:06.334Z,23.00
2018-08-24T18:10:35.445Z,23.00
2018-08-24T18:13:04.830Z,23.00
2018-08-24T18:15:33.576Z,23.10
2018-08-24T18:18:04.029Z,23.00
2018-08-24T18:20:32.741Z,23.00
2018-08-24T18:23:02.567Z,23.00
2018-08-24T18:25:31.347Z,23.10
2018-08-24T18:28:00.773Z,21.80
2018-08-24T18:30:29.566Z,23.20
2018-08-24T18:32:58.283Z,23.10
2018-08-24T18:35:27.207Z,23.00
2018-08-24T18:37:55.975Z,22.90
2018-08-24T18:40:24.731Z,22.90
2018-08-24T18:42:53.395Z,22.40
2018-08-24T18:45:23.608Z,23.00
2018-08-24T18:47:53.619Z,22.90
2018-08-24T18:50:22.382Z,22.90
2018-08-24T18:52:51.078Z,23.00
2018-08-24T18:55:19.736Z,22.80
2018-08-24T18:57:48.550Z,22.90
2018-08-24T19:00:17.289Z,22.70
2018-08-24T19:02:46.011Z,22.90
2018-08-24T19:05:14.903Z,22.80
2018-08-24T19:07:43.716Z,22.80
2018-08-24T19:10:13.184Z,22.80
2018-08-24T19:12:44.821Z,22.70
2018-08-24T19:15:13.391Z,22.60
2018-08-24T19:17:47.325Z,22.60
2018-08-24T19:20:22.405Z,22.60
2018-08-24T19:22:51.851Z,22.70
2018-08-24T19:25:23.355Z,22.70
2018-08-24T19:27:57.302Z,22.60
2018-08-24T19:30:31.229Z,22.60
2018-08-24T19:33:00.037Z,22.60
2018-08-24T19:35:28.692Z,22.50
2018-08-24T19:37:58.146Z,22.40
2018-08-24T19:40:32.084Z,22.50
2018-08-24T19:43:02.998Z,22.40
2018-08-24T19:45:31.725Z,22.40
2018-08-24T19:48:07.047Z,22.40
2018-08-24T19:50:36.839Z,22.40
2018-08-24T19:53:05.477Z,22.40
2018-08-24T19:55:34.159Z,22.30
2018-08-24T19:58:08.191Z,23.90
2018-08-24T20:00:36.992Z,22.40
2018-08-24T20:03:07.306Z,22.60
2018-08-24T20:05:36.143Z,22.50
2018-08-24T20:08:10.131Z,22.50
2018-08-24T20:10:39.418Z,22.50
2018-08-24T20:13:08.191Z,22.40
2018-08-24T20:15:42.080Z,22.30
2018-08-24T20:18:10.770Z,22.30
2018-08-24T20:20:39.463Z,22.40
2018-08-24T20:23:08.152Z,22.30
2018-08-24T20:25:36.927Z,22.30
2018-08-24T20:28:05.709Z,22.30
2018-08-24T20:30:34.505Z,22.20
2018-08-24T20:33:03.208Z,22.20
2018-08-24T20:35:31.990Z,22.20
2018-08-24T20:38:01.582Z,22.20
2018-08-24T20:40:30.359Z,22.00
2018-08-24T20:42:59.119Z,21.90
2018-08-24T20:45:27.790Z,21.80
2018-08-24T20:47:56.568Z,21.60
2018-08-24T20:50:25.321Z,21.50
2018-08-24T20:52:56.180Z,21.40
2018-08-24T20:55:25.067Z,21.30
2018-08-24T20:57:53.827Z,21.20
2018-08-24T21:00:22.489Z,21.10
2018-08-24T21:02:51.333Z,20.50
2018-08-24T21:05:20.099Z,20.80
2018-08-24T21:07:48.893Z,20.70
2018-08-24T21:10:17.691Z,20.60
2018-08-24T21:12:46.946Z,20.40
2018-08-24T21:15:17.379Z,18.70
2018-08-24T21:17:46.075Z,19.60
2018-08-24T21:20:14.812Z,19.40
2018-08-24T21:22:43.482Z,19.30
2018-08-24T21:25:12.150Z,19.30
2018-08-24T21:27:41.026Z,19.20
2018-08-24T21:30:09.859Z,19.20
2018-08-24T21:32:38.605Z,19.20
2018-08-24T21:35:07.258Z,19.30
2018-08-24T21:37:36.143Z,19.30
2018-08-24T21:40:04.877Z,19.30
2018-08-24T21:42:33.546Z,19.30
2018-08-24T21:45:02.329Z,19.30
2018-08-24T21:47:31.033Z,19.30
2018-08-24T21:49:59.669Z,19.30
2018-08-24T21:52:28.469Z,19.30
2018-08-24T21:54:57.249Z,19.30
2018-08-24T21:57:25.968Z,19.30
2018-08-24T21:59:54.848Z,19.20
2018-08-24T22:02:23.525Z,19.20
2018-08-24T22:04:52.838Z,19.20
2018-08-24T22:07:21.690Z,19.10
2018-08-24T22:09:50.446Z,19.10
2018-08-24T22:12:19.194Z,19.10
2018-08-24T22:14:48.112Z,19.20
2018-08-24T22:17:16.801Z,19.10
2018-08-24T22:19:45.414Z,19.00
2018-08-24T22:22:14.127Z,19.00
2018-08-24T22:24:42.933Z,19.00
2018-08-24T22:27:11.595Z,18.90
2018-08-24T22:29:40.415Z,19.00
2018-08-24T22:32:09.083Z,19.00
2018-08-24T22:34:38.216Z,18.90
2018-08-24T22:37:06.965Z,18.90
2018-08-24T22:39:35.662Z,18.90
2018-08-24T22:42:06.759Z,18.80
2018-08-24T22:44:35.490Z,18.30
2018-08-24T22:47:07.035Z,18.80
2018-08-24T22:49:35.742Z,18.80
2018-08-24T22:52:04.826Z,18.70
2018-08-24T22:54:36.552Z,18.70
2018-08-24T22:57:05.393Z,18.60
2018-08-24T22:59:34.382Z,18.70
2018-08-24T23:02:04.490Z,18.70
2018-08-24T23:04:33.467Z,18.70
2018-08-24T23:07:02.239Z,18.80
2018-08-24T23:09:31.281Z,18.70
2018-08-24T23:11:59.989Z,18.80
2018-08-24T23:14:28.751Z,18.80
2018-08-24T23:16:57.523Z,18.80
2018-08-24T23:19:26.371Z,18.80
2018-08-24T23:21:55.026Z,18.90
2018-08-24T23:24:23.750Z,18.90
2018-08-24T23:26:52.493Z,18.90
2018-08-24T23:29:21.297Z,18.90
2018-08-24T23:31:50.053Z,18.90
2018-08-24T23:34:18.746Z,18.90
2018-08-24T23:36:47.624Z,19.00
2018-08-24T23:39:16.301Z,18.90
2018-08-24T23:41:45.000Z,18.90
2018-08-24T23:44:13.682Z,18.90
2018-08-24T23:46:42.439Z,19.00
2018-08-24T23:49:11.166Z,19.00
2018-08-24T23:51:39.801Z,19.00
2018-08-24T23:54:08.534Z,18.90
2018-08-24T23:56:37.369Z,18.90
2018-08-24T23:59:07.106Z,18.80
